sensor_id;sensor_type;location;lat;lon;timestamp;P1;durP1;ratioP1;P2;durP2;ratioP2
31680;SDS011;18281;51.364;9.566;2023-05-14T00:01:43;3.08;;;2.78;;
31680;SDS011;18281;51.364;9.566;2023-05-14T00:04:10;3.15;;;2.65;;
31680;SDS011;18281;51.364;9.566;2023-05-14T00:06:36;3.03;;;2.42;;
31680;SDS011;18281;51.364;9.566;2023-05-14T00:09:01;5.50;;;2.75;;
31680;SDS011;18281;51.364;9.566;2023-05-14T00:11:26;5.53;;;2.53;;
31680;SDS011;18281;51.364;9.566;2023-05-14T00:13:52;4.68;;;3.03;;
31680;SDS011;18281;51.364;9.566;2023-05-14T00:16:17;3.92;;;2.55;;
31680;SDS011;18281;51.364;9.566;2023-05-14T00:18:44;2.35;;;2.22;;
31680;SDS011;18281;51.364;9.566;2023-05-14T00:21:09;3.90;;;2.70;;
31680;SDS011;18281;51.364;9.566;2023-05-14T00:23:34;4.10;;;2.58;;
31680;SDS011;18281;51.364;9.566;2023-05-14T00:26:00;4.45;;;2.80;;
31680;SDS011;18281;51.364;9.566;2023-05-14T00:28:25;2.83;;;2.47;;
31680;SDS011;18281;51.364;9.566;2023-05-14T00:30:50;4.72;;;2.70;;
31680;SDS011;18281;51.364;9.566;2023-05-14T00:33:16;3.63;;;2.50;;
31680;SDS011;18281;51.364;9.566;2023-05-14T00:35:41;4.65;;;2.90;;
31680;SDS011;18281;51.364;9.566;2023-05-14T00:38:07;2.90;;;2.63;;
31680;SDS011;18281;51.364;9.566;2023-05-14T00:40:32;4.57;;;2.60;;
31680;SDS011;18281;51.364;9.566;2023-05-14T00:42:58;3.65;;;2.63;;
31680;SDS011;18281;51.364;9.566;2023-05-14T00:45:23;2.55;;;2.35;;
31680;SDS011;18281;51.364;9.566;2023-05-14T00:47:49;4.45;;;2.40;;
31680;SDS011;18281;51.364;9.566;2023-05-14T00:50:15;5.88;;;3.17;;
31680;SDS011;18281;51.364;9.566;2023-05-14T00:52:42;3.15;;;2.85;;
31680;SDS011;18281;51.364;9.566;2023-05-14T00:55:08;3.03;;;2.70;;
31680;SDS011;18281;51.364;9.566;2023-05-14T00:57:36;2.60;;;2.30;;
31680;SDS011;18281;51.364;9.566;2023-05-14T01:00:02;4.00;;;2.70;;
31680;SDS011;18281;51.364;9.566;2023-05-14T01:02:28;3.45;;;2.63;;
31680;SDS011;18281;51.364;9.566;2023-05-14T01:04:53;3.47;;;3.17;;
31680;SDS011;18281;51.364;9.566;2023-05-14T01:15:32;4.03;;;3.10;;
31680;SDS011;18281;51.364;9.566;2023-05-14T01:18:03;3.45;;;2.67;;
31680;SDS011;18281;51.364;9.566;2023-05-14T01:20:31;4.03;;;2.55;;
31680;SDS011;18281;51.364;9.566;2023-05-14T01:22:57;2.92;;;2.47;;
31680;SDS011;18281;51.364;9.566;2023-05-14T01:25:22;3.72;;;2.90;;
31680;SDS011;18281;51.364;9.566;2023-05-14T01:30:31;3.97;;;2.90;;
31680;SDS011;18281;51.364;9.566;2023-05-14T01:33:01;5.15;;;2.83;;
31680;SDS011;18281;51.364;9.566;2023-05-14T01:35:30;3.25;;;3.05;;
31680;SDS011;18281;51.364;9.566;2023-05-14T01:37:55;4.35;;;2.70;;
31680;SDS011;18281;51.364;9.566;2023-05-14T01:40:25;3.72;;;2.80;;
31680;SDS011;18281;51.364;9.566;2023-05-14T01:42:51;4.15;;;2.80;;
31680;SDS011;18281;51.364;9.566;2023-05-14T01:45:20;3.92;;;2.60;;
31680;SDS011;18281;51.364;9.566;2023-05-14T01:47:46;6.90;;;3.03;;
31680;SDS011;18281;51.364;9.566;2023-05-14T01:50:12;2.70;;;2.50;;
31680;SDS011;18281;51.364;9.566;2023-05-14T01:52:37;3.05;;;2.55;;
31680;SDS011;18281;51.364;9.566;2023-05-14T01:55:03;5.68;;;2.22;;
31680;SDS011;18281;51.364;9.566;2023-05-14T01:57:29;3.00;;;2.67;;
31680;SDS011;18281;51.364;9.566;2023-05-14T01:59:55;3.47;;;2.63;;
31680;SDS011;18281;51.364;9.566;2023-05-14T02:02:21;3.28;;;3.00;;
31680;SDS011;18281;51.364;9.566;2023-05-14T02:04:46;3.75;;;2.50;;
31680;SDS011;18281;51.364;9.566;2023-05-14T02:07:11;3.60;;;2.58;;
31680;SDS011;18281;51.364;9.566;2023-05-14T02:09:37;5.18;;;2.63;;
31680;SDS011;18281;51.364;9.566;2023-05-14T02:12:04;5.07;;;3.00;;
31680;SDS011;18281;51.364;9.566;2023-05-14T02:14:29;3.70;;;2.65;;
31680;SDS011;18281;51.364;9.566;2023-05-14T02:16:55;2.83;;;2.55;;
31680;SDS011;18281;51.364;9.566;2023-05-14T02:19:20;2.55;;;2.35;;
31680;SDS011;18281;51.364;9.566;2023-05-14T02:21:46;6.30;;;3.13;;
31680;SDS011;18281;51.364;9.566;2023-05-14T02:24:12;2.97;;;2.60;;
31680;SDS011;18281;51.364;9.566;2023-05-14T02:26:37;3.30;;;3.00;;
31680;SDS011;18281;51.364;9.566;2023-05-14T02:29:03;5.18;;;2.70;;
31680;SDS011;18281;51.364;9.566;2023-05-14T02:31:28;12.27;;;3.10;;
31680;SDS011;18281;51.364;9.566;2023-05-14T02:33:53;3.45;;;3.15;;
31680;SDS011;18281;51.364;9.566;2023-05-14T02:36:19;5.78;;;3.20;;
31680;SDS011;18281;51.364;9.566;2023-05-14T02:38:44;3.38;;;3.03;;
31680;SDS011;18281;51.364;9.566;2023-05-14T02:41:09;5.10;;;3.00;;
31680;SDS011;18281;51.364;9.566;2023-05-14T02:43:35;3.20;;;2.38;;
31680;SDS011;18281;51.364;9.566;2023-05-14T02:46:00;5.15;;;3.13;;
31680;SDS011;18281;51.364;9.566;2023-05-14T02:48:25;3.42;;;3.10;;
31680;SDS011;18281;51.364;9.566;2023-05-14T02:50:51;3.35;;;3.00;;
31680;SDS011;18281;51.364;9.566;2023-05-14T02:53:16;8.68;;;2.97;;
31680;SDS011;18281;51.364;9.566;2023-05-14T02:55:42;3.45;;;3.15;;
31680;SDS011;18281;51.364;9.566;2023-05-14T02:58:07;6.25;;;2.92;;
31680;SDS011;18281;51.364;9.566;2023-05-14T03:00:33;3.22;;;2.92;;
31680;SDS011;18281;51.364;9.566;2023-05-14T03:02:58;2.95;;;2.75;;
31680;SDS011;18281;51.364;9.566;2023-05-14T03:05:23;3.63;;;2.75;;
31680;SDS011;18281;51.364;9.566;2023-05-14T03:07:50;6.03;;;3.35;;
31680;SDS011;18281;51.364;9.566;2023-05-14T03:10:15;3.40;;;3.00;;
31680;SDS011;18281;51.364;9.566;2023-05-14T03:12:41;4.00;;;3.20;;
31680;SDS011;18281;51.364;9.566;2023-05-14T03:15:06;5.88;;;3.00;;
31680;SDS011;18281;51.364;9.566;2023-05-14T03:17:32;3.72;;;3.40;;
31680;SDS011;18281;51.364;9.566;2023-05-14T03:19:58;4.20;;;3.00;;
31680;SDS011;18281;51.364;9.566;2023-05-14T03:22:23;3.35;;;3.03;;
31680;SDS011;18281;51.364;9.566;2023-05-14T03:24:49;3.22;;;2.92;;
31680;SDS011;18281;51.364;9.566;2023-05-14T03:27:14;3.17;;;2.88;;
31680;SDS011;18281;51.364;9.566;2023-05-14T03:29:39;6.57;;;2.90;;
31680;SDS011;18281;51.364;9.566;2023-05-14T03:32:05;5.40;;;3.22;;
31680;SDS011;18281;51.364;9.566;2023-05-14T03:34:30;4.38;;;3.15;;
31680;SDS011;18281;51.364;9.566;2023-05-14T03:36:56;6.22;;;2.90;;
31680;SDS011;18281;51.364;9.566;2023-05-14T03:39:21;4.25;;;3.42;;
31680;SDS011;18281;51.364;9.566;2023-05-14T03:41:47;7.55;;;3.50;;
31680;SDS011;18281;51.364;9.566;2023-05-14T03:44:12;8.98;;;3.40;;
31680;SDS011;18281;51.364;9.566;2023-05-14T03:46:38;4.50;;;3.40;;
31680;SDS011;18281;51.364;9.566;2023-05-14T03:49:03;3.25;;;2.75;;
31680;SDS011;18281;51.364;9.566;2023-05-14T03:51:29;12.93;;;3.53;;
31680;SDS011;18281;51.364;9.566;2023-05-14T03:53:55;5.18;;;3.30;;
31680;SDS011;18281;51.364;9.566;2023-05-14T03:56:22;9.38;;;3.78;;
31680;SDS011;18281;51.364;9.566;2023-05-14T03:58:47;4.88;;;3.70;;
31680;SDS011;18281;51.364;9.566;2023-05-14T04:01:12;8.45;;;3.70;;
31680;SDS011;18281;51.364;9.566;2023-05-14T04:03:38;3.67;;;3.38;;
31680;SDS011;18281;51.364;9.566;2023-05-14T04:06:03;4.05;;;3.30;;
31680;SDS011;18281;51.364;9.566;2023-05-14T04:08:29;6.65;;;3.67;;
31680;SDS011;18281;51.364;9.566;2023-05-14T04:10:55;4.57;;;3.47;;
31680;SDS011;18281;51.364;9.566;2023-05-14T04:13:20;4.57;;;3.53;;
31680;SDS011;18281;51.364;9.566;2023-05-14T04:15:45;5.68;;;3.78;;
31680;SDS011;18281;51.364;9.566;2023-05-14T04:18:11;4.18;;;3.42;;
31680;SDS011;18281;51.364;9.566;2023-05-14T04:20:36;4.15;;;3.75;;
31680;SDS011;18281;51.364;9.566;2023-05-14T04:23:02;4.47;;;3.50;;
31680;SDS011;18281;51.364;9.566;2023-05-14T04:25:27;3.42;;;3.13;;
31680;SDS011;18281;51.364;9.566;2023-05-14T04:27:52;4.40;;;2.97;;
31680;SDS011;18281;51.364;9.566;2023-05-14T04:30:18;5.60;;;3.35;;
31680;SDS011;18281;51.364;9.566;2023-05-14T04:32:43;4.93;;;3.30;;
31680;SDS011;18281;51.364;9.566;2023-05-14T04:35:09;4.70;;;3.25;;
31680;SDS011;18281;51.364;9.566;2023-05-14T04:37:35;3.50;;;3.20;;
31680;SDS011;18281;51.364;9.566;2023-05-14T04:40:00;4.15;;;3.40;;
31680;SDS011;18281;51.364;9.566;2023-05-14T04:42:25;5.45;;;3.42;;
31680;SDS011;18281;51.364;9.566;2023-05-14T04:44:51;3.65;;;3.35;;
31680;SDS011;18281;51.364;9.566;2023-05-14T04:47:16;5.63;;;3.58;;
31680;SDS011;18281;51.364;9.566;2023-05-14T04:49:42;5.20;;;3.40;;
31680;SDS011;18281;51.364;9.566;2023-05-14T04:52:07;4.50;;;3.65;;
31680;SDS011;18281;51.364;9.566;2023-05-14T04:54:33;4.22;;;3.13;;
31680;SDS011;18281;51.364;9.566;2023-05-14T04:56:58;3.53;;;3.20;;
31680;SDS011;18281;51.364;9.566;2023-05-14T04:59:27;4.60;;;3.87;;
31680;SDS011;18281;51.364;9.566;2023-05-14T05:01:53;3.85;;;3.40;;
31680;SDS011;18281;51.364;9.566;2023-05-14T05:04:18;3.60;;;3.20;;
31680;SDS011;18281;51.364;9.566;2023-05-14T05:06:44;6.10;;;3.45;;
31680;SDS011;18281;51.364;9.566;2023-05-14T05:09:09;5.00;;;2.90;;
31680;SDS011;18281;51.364;9.566;2023-05-14T05:11:34;5.72;;;2.63;;
31680;SDS011;18281;51.364;9.566;2023-05-14T05:14:00;3.72;;;2.90;;
31680;SDS011;18281;51.364;9.566;2023-05-14T05:16:25;2.92;;;2.72;;
31680;SDS011;18281;51.364;9.566;2023-05-14T05:18:50;3.03;;;2.72;;
31680;SDS011;18281;51.364;9.566;2023-05-14T05:21:16;4.32;;;3.13;;
31680;SDS011;18281;51.364;9.566;2023-05-14T05:23:41;5.13;;;3.03;;
31680;SDS011;18281;51.364;9.566;2023-05-14T05:26:06;3.72;;;2.50;;
31680;SDS011;18281;51.364;9.566;2023-05-14T05:28:32;3.42;;;2.95;;
31680;SDS011;18281;51.364;9.566;2023-05-14T05:30:57;3.25;;;2.95;;
31680;SDS011;18281;51.364;9.566;2023-05-14T05:33:23;3.10;;;2.80;;
31680;SDS011;18281;51.364;9.566;2023-05-14T05:35:48;4.07;;;2.95;;
31680;SDS011;18281;51.364;9.566;2023-05-14T05:38:14;3.10;;;2.80;;
31680;SDS011;18281;51.364;9.566;2023-05-14T05:40:42;5.32;;;2.80;;
31680;SDS011;18281;51.364;9.566;2023-05-14T05:43:07;3.67;;;3.05;;
31680;SDS011;18281;51.364;9.566;2023-05-14T05:45:32;5.85;;;2.70;;
31680;SDS011;18281;51.364;9.566;2023-05-14T05:47:58;3.40;;;2.95;;
31680;SDS011;18281;51.364;9.566;2023-05-14T05:50:23;4.72;;;2.95;;
31680;SDS011;18281;51.364;9.566;2023-05-14T05:52:48;3.40;;;3.10;;
31680;SDS011;18281;51.364;9.566;2023-05-14T05:55:14;3.63;;;2.80;;
31680;SDS011;18281;51.364;9.566;2023-05-14T05:57:39;2.72;;;2.53;;
31680;SDS011;18281;51.364;9.566;2023-05-14T06:00:05;3.78;;;3.22;;
31680;SDS011;18281;51.364;9.566;2023-05-14T06:02:38;3.88;;;3.30;;
31680;SDS011;18281;51.364;9.566;2023-05-14T06:05:05;4.30;;;2.92;;
31680;SDS011;18281;51.364;9.566;2023-05-14T06:07:31;3.35;;;3.05;;
31680;SDS011;18281;51.364;9.566;2023-05-14T06:09:56;2.90;;;2.70;;
31680;SDS011;18281;51.364;9.566;2023-05-14T06:12:22;3.40;;;3.10;;
31680;SDS011;18281;51.364;9.566;2023-05-14T06:14:47;4.25;;;3.08;;
31680;SDS011;18281;51.364;9.566;2023-05-14T06:17:12;3.40;;;2.88;;
31680;SDS011;18281;51.364;9.566;2023-05-14T06:19:37;3.75;;;3.28;;
31680;SDS011;18281;51.364;9.566;2023-05-14T06:22:03;4.85;;;3.30;;
31680;SDS011;18281;51.364;9.566;2023-05-14T06:24:28;4.95;;;2.70;;
31680;SDS011;18281;51.364;9.566;2023-05-14T06:26:54;3.47;;;3.00;;
31680;SDS011;18281;51.364;9.566;2023-05-14T06:29:19;2.92;;;2.72;;
31680;SDS011;18281;51.364;9.566;2023-05-14T06:31:45;3.53;;;3.22;;
31680;SDS011;18281;51.364;9.566;2023-05-14T06:34:10;3.85;;;2.90;;
31680;SDS011;18281;51.364;9.566;2023-05-14T06:36:35;3.88;;;3.13;;
31680;SDS011;18281;51.364;9.566;2023-05-14T06:39:01;4.80;;;3.20;;
31680;SDS011;18281;51.364;9.566;2023-05-14T06:41:27;8.18;;;3.90;;
31680;SDS011;18281;51.364;9.566;2023-05-14T06:43:53;5.75;;;3.50;;
31680;SDS011;18281;51.364;9.566;2023-05-14T06:46:19;6.00;;;3.67;;
31680;SDS011;18281;51.364;9.566;2023-05-14T06:48:44;7.90;;;3.85;;
31680;SDS011;18281;51.364;9.566;2023-05-14T06:51:10;4.75;;;3.33;;
31680;SDS011;18281;51.364;9.566;2023-05-14T06:53:37;3.42;;;3.13;;
31680;SDS011;18281;51.364;9.566;2023-05-14T06:56:03;7.15;;;3.95;;
31680;SDS011;18281;51.364;9.566;2023-05-14T06:58:28;6.07;;;3.42;;
31680;SDS011;18281;51.364;9.566;2023-05-14T07:00:54;5.05;;;3.60;;
31680;SDS011;18281;51.364;9.566;2023-05-14T07:03:19;3.38;;;3.10;;
31680;SDS011;18281;51.364;9.566;2023-05-14T07:05:46;3.08;;;2.88;;
31680;SDS011;18281;51.364;9.566;2023-05-14T07:08:11;6.93;;;2.78;;
31680;SDS011;18281;51.364;9.566;2023-05-14T07:10:37;3.33;;;2.65;;
31680;SDS011;18281;51.364;9.566;2023-05-14T07:13:03;3.58;;;2.92;;
31680;SDS011;18281;51.364;9.566;2023-05-14T07:15:28;3.78;;;3.15;;
31680;SDS011;18281;51.364;9.566;2023-05-14T07:17:54;4.80;;;3.83;;
31680;SDS011;18281;51.364;9.566;2023-05-14T07:20:19;6.00;;;3.75;;
31680;SDS011;18281;51.364;9.566;2023-05-14T07:22:44;5.15;;;4.30;;
31680;SDS011;18281;51.364;9.566;2023-05-14T07:25:10;6.30;;;4.35;;
31680;SDS011;18281;51.364;9.566;2023-05-14T07:27:35;5.68;;;4.07;;
31680;SDS011;18281;51.364;9.566;2023-05-14T07:30:00;5.32;;;3.92;;
31680;SDS011;18281;51.364;9.566;2023-05-14T07:32:26;4.72;;;3.53;;
31680;SDS011;18281;51.364;9.566;2023-05-14T07:34:51;6.10;;;3.33;;
31680;SDS011;18281;51.364;9.566;2023-05-14T07:37:16;3.42;;;3.13;;
31680;SDS011;18281;51.364;9.566;2023-05-14T07:39:42;3.35;;;3.15;;
31680;SDS011;18281;51.364;9.566;2023-05-14T07:42:07;4.82;;;4.00;;
31680;SDS011;18281;51.364;9.566;2023-05-14T07:44:33;4.03;;;3.30;;
31680;SDS011;18281;51.364;9.566;2023-05-14T07:46:58;5.50;;;3.33;;
31680;SDS011;18281;51.364;9.566;2023-05-14T07:49:23;4.70;;;3.25;;
31680;SDS011;18281;51.364;9.566;2023-05-14T07:51:49;5.72;;;3.33;;
31680;SDS011;18281;51.364;9.566;2023-05-14T07:54:15;6.38;;;4.55;;
31680;SDS011;18281;51.364;9.566;2023-05-14T07:56:40;8.65;;;4.30;;
31680;SDS011;18281;51.364;9.566;2023-05-14T07:59:06;6.28;;;4.53;;
31680;SDS011;18281;51.364;9.566;2023-05-14T08:01:31;4.88;;;3.40;;
31680;SDS011;18281;51.364;9.566;2023-05-14T08:03:56;4.25;;;3.22;;
31680;SDS011;18281;51.364;9.566;2023-05-14T08:06:23;6.72;;;3.90;;
31680;SDS011;18281;51.364;9.566;2023-05-14T08:08:51;3.60;;;3.23;;
31680;SDS011;18281;51.364;9.566;2023-05-14T08:11:16;5.97;;;3.40;;
31680;SDS011;18281;51.364;9.566;2023-05-14T08:13:42;5.45;;;3.25;;
31680;SDS011;18281;51.364;9.566;2023-05-14T08:16:07;3.28;;;2.97;;
31680;SDS011;18281;51.364;9.566;2023-05-14T08:18:33;8.00;;;3.45;;
31680;SDS011;18281;51.364;9.566;2023-05-14T08:20:58;7.43;;;3.10;;
31680;SDS011;18281;51.364;9.566;2023-05-14T08:23:24;3.17;;;2.88;;
31680;SDS011;18281;51.364;9.566;2023-05-14T08:25:50;3.67;;;3.38;;
31680;SDS011;18281;51.364;9.566;2023-05-14T08:28:15;5.72;;;3.20;;
31680;SDS011;18281;51.364;9.566;2023-05-14T08:30:41;3.30;;;2.97;;
31680;SDS011;18281;51.364;9.566;2023-05-14T08:33:06;4.82;;;3.03;;
31680;SDS011;18281;51.364;9.566;2023-05-14T08:35:31;3.88;;;2.97;;
31680;SDS011;18281;51.364;9.566;2023-05-14T08:37:57;3.58;;;3.00;;
31680;SDS011;18281;51.364;9.566;2023-05-14T08:40:22;5.43;;;3.08;;
31680;SDS011;18281;51.364;9.566;2023-05-14T08:42:48;3.20;;;2.90;;
31680;SDS011;18281;51.364;9.566;2023-05-14T08:47:43;5.32;;;2.75;;
31680;SDS011;18281;51.364;9.566;2023-05-14T08:50:14;3.22;;;2.92;;
31680;SDS011;18281;51.364;9.566;2023-05-14T08:52:40;3.75;;;3.15;;
31680;SDS011;18281;51.364;9.566;2023-05-14T08:55:05;3.72;;;3.28;;
31680;SDS011;18281;51.364;9.566;2023-05-14T08:57:32;5.40;;;2.70;;
31680;SDS011;18281;51.364;9.566;2023-05-14T08:59:58;4.68;;;3.50;;
31680;SDS011;18281;51.364;9.566;2023-05-14T09:02:28;3.55;;;3.25;;
31680;SDS011;18281;51.364;9.566;2023-05-14T09:04:56;3.70;;;3.35;;
31680;SDS011;18281;51.364;9.566;2023-05-14T09:07:23;3.85;;;3.47;;
31680;SDS011;18281;51.364;9.566;2023-05-14T09:09:49;3.22;;;2.90;;
31680;SDS011;18281;51.364;9.566;2023-05-14T09:12:15;5.28;;;2.70;;
31680;SDS011;18281;51.364;9.566;2023-05-14T09:14:40;3.17;;;2.70;;
31680;SDS011;18281;51.364;9.566;2023-05-14T09:17:06;3.45;;;2.70;;
31680;SDS011;18281;51.364;9.566;2023-05-14T09:19:32;3.85;;;2.85;;
31680;SDS011;18281;51.364;9.566;2023-05-14T09:21:58;3.40;;;2.80;;
31680;SDS011;18281;51.364;9.566;2023-05-14T09:24:24;2.78;;;2.47;;
31680;SDS011;18281;51.364;9.566;2023-05-14T09:26:55;5.03;;;3.00;;
31680;SDS011;18281;51.364;9.566;2023-05-14T09:29:25;4.20;;;2.80;;
31680;SDS011;18281;51.364;9.566;2023-05-14T09:31:52;3.03;;;2.55;;
31680;SDS011;18281;51.364;9.566;2023-05-14T09:34:25;4.80;;;2.65;;
31680;SDS011;18281;51.364;9.566;2023-05-14T09:37:02;3.00;;;2.70;;
31680;SDS011;18281;51.364;9.566;2023-05-14T09:39:29;2.97;;;2.75;;
31680;SDS011;18281;51.364;9.566;2023-05-14T09:41:55;3.35;;;2.95;;
31680;SDS011;18281;51.364;9.566;2023-05-14T09:44:20;3.25;;;2.90;;
31680;SDS011;18281;51.364;9.566;2023-05-14T09:46:47;2.92;;;2.65;;
31680;SDS011;18281;51.364;9.566;2023-05-14T09:49:13;3.95;;;2.42;;
31680;SDS011;18281;51.364;9.566;2023-05-14T09:51:38;3.75;;;2.67;;
31680;SDS011;18281;51.364;9.566;2023-05-14T09:54:04;2.25;;;2.08;;
31680;SDS011;18281;51.364;9.566;2023-05-14T09:56:31;2.65;;;2.45;;
31680;SDS011;18281;51.364;9.566;2023-05-14T09:58:57;4.05;;;2.55;;
31680;SDS011;18281;51.364;9.566;2023-05-14T10:01:22;2.58;;;2.38;;
31680;SDS011;18281;51.364;9.566;2023-05-14T10:03:49;4.55;;;2.28;;
31680;SDS011;18281;51.364;9.566;2023-05-14T10:06:16;2.60;;;2.42;;
31680;SDS011;18281;51.364;9.566;2023-05-14T10:08:46;3.78;;;2.75;;
31680;SDS011;18281;51.364;9.566;2023-05-14T10:11:14;4.07;;;2.60;;
31680;SDS011;18281;51.364;9.566;2023-05-14T10:13:45;4.53;;;2.60;;
31680;SDS011;18281;51.364;9.566;2023-05-14T10:16:20;2.60;;;2.40;;
31680;SDS011;18281;51.364;9.566;2023-05-14T10:18:53;3.05;;;2.75;;
31680;SDS011;18281;51.364;9.566;2023-05-14T10:21:22;2.72;;;2.53;;
31680;SDS011;18281;51.364;9.566;2023-05-14T10:23:49;2.53;;;2.33;;
31680;SDS011;18281;51.364;9.566;2023-05-14T10:26:15;3.10;;;2.25;;
31680;SDS011;18281;51.364;9.566;2023-05-14T10:28:41;4.32;;;2.50;;
31680;SDS011;18281;51.364;9.566;2023-05-14T10:31:10;4.82;;;2.45;;
31680;SDS011;18281;51.364;9.566;2023-05-14T10:33:46;2.67;;;2.20;;
31680;SDS011;18281;51.364;9.566;2023-05-14T10:36:14;2.90;;;2.58;;
31680;SDS011;18281;51.364;9.566;2023-05-14T10:38:39;2.53;;;2.30;;
31680;SDS011;18281;51.364;9.566;2023-05-14T10:41:06;2.63;;;2.42;;
31680;SDS011;18281;51.364;9.566;2023-05-14T10:43:36;7.18;;;2.22;;
31680;SDS011;18281;51.364;9.566;2023-05-14T10:46:02;3.00;;;2.38;;
31680;SDS011;18281;51.364;9.566;2023-05-14T10:48:29;4.68;;;2.10;;
31680;SDS011;18281;51.364;9.566;2023-05-14T10:50:55;3.22;;;2.42;;
31680;SDS011;18281;51.364;9.566;2023-05-14T10:56:19;2.30;;;2.10;;
31680;SDS011;18281;51.364;9.566;2023-05-14T10:58:45;2.50;;;2.30;;
31680;SDS011;18281;51.364;9.566;2023-05-14T11:01:14;3.28;;;2.05;;
31680;SDS011;18281;51.364;9.566;2023-05-14T11:06:06;2.50;;;2.17;;
31680;SDS011;18281;51.364;9.566;2023-05-14T11:08:33;2.95;;;2.25;;
31680;SDS011;18281;51.364;9.566;2023-05-14T11:10:59;2.33;;;1.95;;
31680;SDS011;18281;51.364;9.566;2023-05-14T11:13:24;2.92;;;1.70;;
31680;SDS011;18281;51.364;9.566;2023-05-14T11:15:50;2.28;;;2.08;;
31680;SDS011;18281;51.364;9.566;2023-05-14T11:18:25;2.10;;;1.63;;
31680;SDS011;18281;51.364;9.566;2023-05-14T11:20:52;2.97;;;1.88;;
31680;SDS011;18281;51.364;9.566;2023-05-14T11:23:20;2.03;;;1.83;;
31680;SDS011;18281;51.364;9.566;2023-05-14T11:25:47;2.15;;;1.90;;
31680;SDS011;18281;51.364;9.566;2023-05-14T11:28:12;2.03;;;1.88;;
31680;SDS011;18281;51.364;9.566;2023-05-14T11:30:37;2.33;;;1.85;;
31680;SDS011;18281;51.364;9.566;2023-05-14T11:33:03;2.42;;;1.65;;
31680;SDS011;18281;51.364;9.566;2023-05-14T11:35:28;3.47;;;1.70;;
31680;SDS011;18281;51.364;9.566;2023-05-14T11:37:54;2.28;;;1.80;;
31680;SDS011;18281;51.364;9.566;2023-05-14T11:40:20;2.70;;;1.90;;
31680;SDS011;18281;51.364;9.566;2023-05-14T11:42:45;1.95;;;1.85;;
31680;SDS011;18281;51.364;9.566;2023-05-14T11:45:11;2.80;;;1.70;;
31680;SDS011;18281;51.364;9.566;2023-05-14T11:47:39;3.40;;;2.05;;
31680;SDS011;18281;51.364;9.566;2023-05-14T11:50:05;5.03;;;1.90;;
31680;SDS011;18281;51.364;9.566;2023-05-14T11:52:33;2.08;;;1.75;;
31680;SDS011;18281;51.364;9.566;2023-05-14T11:55:01;2.00;;;1.80;;
31680;SDS011;18281;51.364;9.566;2023-05-14T11:57:28;1.73;;;1.60;;
31680;SDS011;18281;51.364;9.566;2023-05-14T11:59:55;1.58;;;1.48;;
31680;SDS011;18281;51.364;9.566;2023-05-14T12:02:23;2.03;;;1.83;;
31680;SDS011;18281;51.364;9.566;2023-05-14T12:04:53;2.05;;;1.67;;
31680;SDS011;18281;51.364;9.566;2023-05-14T12:07:18;2.25;;;1.70;;
31680;SDS011;18281;51.364;9.566;2023-05-14T12:09:44;1.70;;;1.60;;
31680;SDS011;18281;51.364;9.566;2023-05-14T12:12:15;1.70;;;1.60;;
31680;SDS011;18281;51.364;9.566;2023-05-14T12:14:43;3.10;;;1.50;;
31680;SDS011;18281;51.364;9.566;2023-05-14T12:17:19;1.50;;;1.40;;
31680;SDS011;18281;51.364;9.566;2023-05-14T12:19:46;1.70;;;1.60;;
31680;SDS011;18281;51.364;9.566;2023-05-14T12:22:14;1.63;;;1.52;;
31680;SDS011;18281;51.364;9.566;2023-05-14T12:24:42;1.73;;;1.63;;
31680;SDS011;18281;51.364;9.566;2023-05-14T12:27:08;1.92;;;1.40;;
31680;SDS011;18281;51.364;9.566;2023-05-14T12:29:34;1.98;;;1.48;;
31680;SDS011;18281;51.364;9.566;2023-05-14T12:32:01;1.50;;;1.40;;
31680;SDS011;18281;51.364;9.566;2023-05-14T12:34:32;2.33;;;1.75;;
31680;SDS011;18281;51.364;9.566;2023-05-14T12:36:57;1.60;;;1.40;;
31680;SDS011;18281;51.364;9.566;2023-05-14T12:39:23;1.85;;;1.50;;
31680;SDS011;18281;51.364;9.566;2023-05-14T12:41:48;1.52;;;1.27;;
31680;SDS011;18281;51.364;9.566;2023-05-14T12:44:14;2.60;;;1.33;;
31680;SDS011;18281;51.364;9.566;2023-05-14T12:46:39;2.63;;;1.55;;
31680;SDS011;18281;51.364;9.566;2023-05-14T12:49:05;2.03;;;1.73;;
31680;SDS011;18281;51.364;9.566;2023-05-14T12:51:30;2.55;;;1.60;;
31680;SDS011;18281;51.364;9.566;2023-05-14T12:53:56;3.67;;;1.67;;
31680;SDS011;18281;51.364;9.566;2023-05-14T12:56:21;3.35;;;1.60;;
31680;SDS011;18281;51.364;9.566;2023-05-14T12:58:51;1.58;;;1.48;;
31680;SDS011;18281;51.364;9.566;2023-05-14T13:01:17;2.50;;;1.63;;
31680;SDS011;18281;51.364;9.566;2023-05-14T13:03:42;2.17;;;1.58;;
31680;SDS011;18281;51.364;9.566;2023-05-14T13:06:08;1.70;;;1.60;;
31680;SDS011;18281;51.364;9.566;2023-05-14T13:08:33;1.55;;;1.45;;
31680;SDS011;18281;51.364;9.566;2023-05-14T13:10:59;2.08;;;1.88;;
31680;SDS011;18281;51.364;9.566;2023-05-14T13:13:24;2.40;;;1.77;;
31680;SDS011;18281;51.364;9.566;2023-05-14T13:15:50;1.90;;;1.77;;
31680;SDS011;18281;51.364;9.566;2023-05-14T13:18:16;1.60;;;1.45;;
31680;SDS011;18281;51.364;9.566;2023-05-14T13:20:42;1.73;;;1.63;;
31680;SDS011;18281;51.364;9.566;2023-05-14T13:23:09;2.55;;;1.40;;
31680;SDS011;18281;51.364;9.566;2023-05-14T13:25:34;1.70;;;1.60;;
31680;SDS011;18281;51.364;9.566;2023-05-14T13:27:59;1.48;;;1.38;;
31680;SDS011;18281;51.364;9.566;2023-05-14T13:30:25;1.90;;;1.52;;
31680;SDS011;18281;51.364;9.566;2023-05-14T13:32:50;1.88;;;1.77;;
31680;SDS011;18281;51.364;9.566;2023-05-14T13:35:16;1.75;;;1.65;;
31680;SDS011;18281;51.364;9.566;2023-05-14T13:37:42;2.38;;;1.90;;
31680;SDS011;18281;51.364;9.566;2023-05-14T13:40:07;2.05;;;1.70;;
31680;SDS011;18281;51.364;9.566;2023-05-14T13:42:34;4.05;;;1.60;;
31680;SDS011;18281;51.364;9.566;2023-05-14T13:44:59;2.22;;;1.80;;
31680;SDS011;18281;51.364;9.566;2023-05-14T13:47:25;2.63;;;1.73;;
31680;SDS011;18281;51.364;9.566;2023-05-14T13:49:51;1.98;;;1.83;;
31680;SDS011;18281;51.364;9.566;2023-05-14T13:52:17;2.05;;;1.80;;
31680;SDS011;18281;51.364;9.566;2023-05-14T13:54:42;3.58;;;1.98;;
31680;SDS011;18281;51.364;9.566;2023-05-14T13:57:08;2.85;;;1.92;;
31680;SDS011;18281;51.364;9.566;2023-05-14T13:59:33;1.83;;;1.70;;
31680;SDS011;18281;51.364;9.566;2023-05-14T14:01:59;3.58;;;1.75;;
31680;SDS011;18281;51.364;9.566;2023-05-14T14:04:24;2.45;;;2.05;;
31680;SDS011;18281;51.364;9.566;2023-05-14T14:06:53;3.63;;;2.03;;
31680;SDS011;18281;51.364;9.566;2023-05-14T14:09:21;1.77;;;1.67;;
31680;SDS011;18281;51.364;9.566;2023-05-14T14:11:47;4.72;;;1.90;;
31680;SDS011;18281;51.364;9.566;2023-05-14T14:14:12;3.50;;;2.25;;
31680;SDS011;18281;51.364;9.566;2023-05-14T14:16:38;1.92;;;1.83;;
31680;SDS011;18281;51.364;9.566;2023-05-14T14:19:03;4.35;;;2.10;;
31680;SDS011;18281;51.364;9.566;2023-05-14T14:21:28;2.80;;;2.13;;
31680;SDS011;18281;51.364;9.566;2023-05-14T14:23:55;2.30;;;1.92;;
31680;SDS011;18281;51.364;9.566;2023-05-14T14:26:20;1.98;;;1.75;;
31680;SDS011;18281;51.364;9.566;2023-05-14T14:28:45;2.88;;;2.08;;
31680;SDS011;18281;51.364;9.566;2023-05-14T14:31:11;2.92;;;1.80;;
31680;SDS011;18281;51.364;9.566;2023-05-14T14:33:37;4.35;;;1.90;;
31680;SDS011;18281;51.364;9.566;2023-05-14T14:36:02;4.13;;;1.98;;
31680;SDS011;18281;51.364;9.566;2023-05-14T14:38:27;2.42;;;1.92;;
31680;SDS011;18281;51.364;9.566;2023-05-14T14:40:53;4.55;;;2.13;;
31680;SDS011;18281;51.364;9.566;2023-05-14T14:43:18;4.03;;;2.05;;
31680;SDS011;18281;51.364;9.566;2023-05-14T14:45:43;4.20;;;2.50;;
31680;SDS011;18281;51.364;9.566;2023-05-14T14:51:11;2.45;;;1.90;;
31680;SDS011;18281;51.364;9.566;2023-05-14T14:53:37;2.50;;;2.08;;
31680;SDS011;18281;51.364;9.566;2023-05-14T14:56:04;2.85;;;2.20;;
31680;SDS011;18281;51.364;9.566;2023-05-14T14:58:29;2.78;;;2.40;;
31680;SDS011;18281;51.364;9.566;2023-05-14T15:00:55;5.53;;;2.88;;
31680;SDS011;18281;51.364;9.566;2023-05-14T15:03:21;6.47;;;2.60;;